createdAt,value
2023-02-14T00:01:09.363Z,2.40
2023-02-14T00:03:36.677Z,2.40
2023-02-14T00:06:12.230Z,2.40
2023-02-14T00:08:41.000Z,2.50
2023-02-14T00:11:11.136Z,2.50
2023-02-14T00:13:38.605Z,2.50
2023-02-14T00:16:06.113Z,2.50
2023-02-14T00:18:51.949Z,2.50
2023-02-14T00:21:19.395Z,2.50
2023-02-14T00:23:46.713Z,2.50
2023-02-14T00:26:15.022Z,2.50
2023-02-14T00:28:43.554Z,2.50
2023-02-14T00:31:11.007Z,2.50
2023-02-14T00:33:38.469Z,2.50
2023-02-14T00:36:07.041Z,2.40
2023-02-14T00:38:34.706Z,2.40
2023-02-14T00:41:02.231Z,2.40
2023-02-14T00:43:29.785Z,2.40
2023-02-14T00:45:57.931Z,2.40
2023-02-14T00:48:25.514Z,2.40
2023-02-14T00:50:52.842Z,2.40
2023-02-14T00:53:20.236Z,2.30
2023-02-14T00:55:47.574Z,2.20
2023-02-14T00:58:15.609Z,2.10
2023-02-14T01:00:42.959Z,2.10
2023-02-14T01:03:10.379Z,2.10
2023-02-14T01:05:37.730Z,2.10
2023-02-14T01:08:05.243Z,2.10
2023-02-14T01:10:32.602Z,2.20
2023-02-14T01:13:00.023Z,2.30
2023-02-14T01:15:28.704Z,2.30
2023-02-14T01:17:56.065Z,2.30
2023-02-14T01:20:23.409Z,2.30
2023-02-14T01:22:50.803Z,2.30
2023-02-14T01:25:18.327Z,2.30
2023-02-14T01:27:45.821Z,2.30
2023-02-14T01:30:14.641Z,2.20
2023-02-14T01:32:42.467Z,2.20
2023-02-14T01:35:10.154Z,2.20
2023-02-14T01:37:37.724Z,2.20
2023-02-14T01:40:06.406Z,2.20
2023-02-14T01:42:34.171Z,2.20
2023-02-14T01:45:06.262Z,2.20
2023-02-14T01:47:35.008Z,2.20
2023-02-14T01:50:12.577Z,2.20
2023-02-14T01:52:46.346Z,2.20
2023-02-14T01:55:17.065Z,2.20
2023-02-14T01:58:01.989Z,2.20
2023-02-14T02:00:48.209Z,2.20
2023-02-14T02:03:16.328Z,2.20
2023-02-14T02:05:47.415Z,2.20
2023-02-14T02:08:15.020Z,2.20
2023-02-14T02:10:43.283Z,2.10
2023-02-14T02:13:16.730Z,2.10
2023-02-14T02:16:15.669Z,2.00
2023-02-14T02:19:04.721Z,2.00
2023-02-14T02:21:49.796Z,1.90
2023-02-14T02:24:41.154Z,1.90
2023-02-14T02:27:38.748Z,1.80
2023-02-14T02:30:17.422Z,1.80
2023-02-14T02:33:09.419Z,1.80
2023-02-14T02:36:10.719Z,1.80
2023-02-14T02:38:53.318Z,1.80
2023-02-14T02:41:35.676Z,1.80
2023-02-14T02:44:35.120Z,1.70
2023-02-14T02:47:08.836Z,1.70
2023-02-14T02:50:14.948Z,1.70
2023-02-14T02:53:05.430Z,1.70
2023-02-14T02:56:16.795Z,1.60
2023-02-14T02:59:18.157Z,1.60
2023-02-14T03:01:52.176Z,1.60
2023-02-14T03:04:37.876Z,1.70
2023-02-14T03:07:25.214Z,1.70
2023-02-14T03:09:56.711Z,1.70
2023-02-14T03:12:44.495Z,1.70
2023-02-14T03:16:03.329Z,1.60
2023-02-14T03:18:43.514Z,1.60
2023-02-14T03:21:28.544Z,1.60
2023-02-14T03:24:05.182Z,1.60
2023-02-14T03:26:39.173Z,1.60
2023-02-14T03:29:06.550Z,1.50
2023-02-14T03:31:53.447Z,1.60
2023-02-14T03:34:37.013Z,1.60
2023-02-14T03:37:42.927Z,1.50
2023-02-14T03:40:15.272Z,1.50
2023-02-14T03:42:55.049Z,1.40
2023-02-14T03:46:07.299Z,1.50
2023-02-14T03:48:34.737Z,1.50
2023-02-14T03:51:02.270Z,1.50
2023-02-14T03:53:31.717Z,1.50
2023-02-14T03:56:05.315Z,1.40
2023-02-14T03:58:34.992Z,1.40
2023-02-14T04:01:06.826Z,1.30
2023-02-14T04:03:34.310Z,1.30
2023-02-14T04:06:01.649Z,1.30
2023-02-14T04:08:29.495Z,1.30
2023-02-14T04:10:58.272Z,1.40
2023-02-14T04:13:25.765Z,1.40
2023-02-14T04:15:53.099Z,1.40
2023-02-14T04:18:53.090Z,1.30
2023-02-14T04:21:20.452Z,1.40
2023-02-14T04:23:47.736Z,1.40
2023-02-14T04:26:15.105Z,1.40
2023-02-14T04:28:42.433Z,1.50
2023-02-14T04:31:11.421Z,1.50
2023-02-14T04:33:39.332Z,1.50
2023-02-14T04:36:06.951Z,1.50
2023-02-14T04:38:34.359Z,1.50
2023-02-14T04:41:02.110Z,1.50
2023-02-14T04:43:29.596Z,1.50
2023-02-14T04:45:57.055Z,1.50
2023-02-14T04:48:24.390Z,1.40
2023-02-14T04:50:55.174Z,1.40
2023-02-14T04:53:22.562Z,1.40
2023-02-14T04:55:50.239Z,1.40
2023-02-14T04:58:18.082Z,1.50
2023-02-14T05:00:45.573Z,1.50
2023-02-14T05:03:12.950Z,1.60
2023-02-14T05:05:40.370Z,1.60
2023-02-14T05:08:07.685Z,1.70
2023-02-14T05:10:35.082Z,1.70
2023-02-14T05:13:02.394Z,1.80
2023-02-14T05:15:29.689Z,1.80
2023-02-14T05:18:01.634Z,1.80
2023-02-14T05:20:29.557Z,1.80
2023-02-14T05:22:56.976Z,1.80
2023-02-14T05:25:24.301Z,1.80
2023-02-14T05:27:51.682Z,1.80
2023-02-14T05:30:22.398Z,1.80
2023-02-14T05:32:49.805Z,1.90
2023-02-14T05:35:17.144Z,1.90
2023-02-14T05:37:44.559Z,2.00
2023-02-14T05:40:13.943Z,2.00
2023-02-14T05:42:41.265Z,2.00
2023-02-14T05:45:09.381Z,2.00
2023-02-14T05:47:36.745Z,2.00
2023-02-14T05:50:04.988Z,2.00
2023-02-14T05:52:32.325Z,2.00
2023-02-14T05:54:59.655Z,2.10
2023-02-14T05:57:26.941Z,2.10
2023-02-14T05:59:54.302Z,2.10
2023-02-14T06:02:21.695Z,2.10
2023-02-14T06:04:49.089Z,2.10
2023-02-14T06:07:16.570Z,2.20
2023-02-14T06:09:43.973Z,2.20
2023-02-14T06:12:11.321Z,2.20
2023-02-14T06:14:38.670Z,2.20
2023-02-14T06:17:05.986Z,2.10
2023-02-14T06:19:33.308Z,2.20
2023-02-14T06:22:00.657Z,2.90
2023-02-14T06:24:28.016Z,3.90
2023-02-14T06:26:55.385Z,5.50
2023-02-14T06:29:22.913Z,5.70
2023-02-14T06:31:50.363Z,5.40
2023-02-14T06:34:17.844Z,5.10
2023-02-14T06:36:45.283Z,4.60
2023-02-14T06:39:12.650Z,4.20
2023-02-14T06:41:39.970Z,3.90
2023-02-14T06:44:07.469Z,3.60
2023-02-14T06:46:34.836Z,3.40
2023-02-14T06:49:02.192Z,3.20
2023-02-14T06:51:29.505Z,3.10
2023-02-14T06:53:56.866Z,3.00
2023-02-14T06:56:24.260Z,2.90
2023-02-14T06:58:51.686Z,2.70
2023-02-14T07:01:19.074Z,2.60
2023-02-14T07:03:46.499Z,2.60
2023-02-14T07:06:13.896Z,2.60
2023-02-14T07:08:42.328Z,2.50
2023-02-14T07:11:09.909Z,2.50
2023-02-14T07:13:37.279Z,2.40
2023-02-14T07:16:04.953Z,2.40
2023-02-14T07:18:32.496Z,2.40
2023-02-14T07:21:00.166Z,2.40
2023-02-14T07:23:27.774Z,2.40
2023-02-14T07:25:55.971Z,2.30
2023-02-14T07:28:23.395Z,2.30
2023-02-14T07:30:50.839Z,2.40
2023-02-14T07:33:18.256Z,2.40
2023-02-14T07:35:45.586Z,2.50
2023-02-14T07:38:12.952Z,2.50
2023-02-14T07:40:40.344Z,2.50
2023-02-14T07:43:08.115Z,2.40
2023-02-14T07:45:35.457Z,2.40
2023-02-14T07:48:03.063Z,2.40
2023-02-14T07:50:30.510Z,2.40
2023-02-14T07:52:57.886Z,2.40
2023-02-14T07:55:25.261Z,2.40
2023-02-14T07:57:52.626Z,2.50
2023-02-14T08:00:20.539Z,2.60
2023-02-14T08:02:49.455Z,2.60
2023-02-14T08:05:17.068Z,2.70
2023-02-14T08:07:46.308Z,2.70
2023-02-14T08:10:13.744Z,2.80
2023-02-14T08:12:59.672Z,2.70
2023-02-14T08:15:50.315Z,2.70
2023-02-14T08:18:18.363Z,2.70
2023-02-14T08:20:46.788Z,2.70
2023-02-14T08:23:14.307Z,2.80
2023-02-14T08:25:41.708Z,2.80
2023-02-14T08:28:09.340Z,2.90
2023-02-14T08:30:38.128Z,2.80
2023-02-14T08:33:06.057Z,2.90
2023-02-14T08:35:33.546Z,3.00
2023-02-14T08:38:00.967Z,3.10
2023-02-14T08:40:28.656Z,3.10
2023-02-14T08:42:56.057Z,3.20
2023-02-14T08:45:23.376Z,3.30
2023-02-14T08:47:50.802Z,3.30
2023-02-14T08:50:19.922Z,3.30
2023-02-14T08:52:47.277Z,3.40
2023-02-14T08:55:14.746Z,3.40
2023-02-14T08:57:42.143Z,3.50
2023-02-14T09:00:10.020Z,3.60
2023-02-14T09:02:37.397Z,3.50
2023-02-14T09:05:06.180Z,3.50
2023-02-14T09:07:33.673Z,3.50
2023-02-14T09:10:01.153Z,3.50
2023-02-14T09:12:28.445Z,3.50
2023-02-14T09:14:55.804Z,3.60
2023-02-14T09:17:23.145Z,3.60
2023-02-14T09:19:50.588Z,3.80
2023-02-14T09:22:18.746Z,3.90
2023-02-14T09:24:46.156Z,3.90
2023-02-14T09:27:13.516Z,4.00
2023-02-14T09:29:40.951Z,4.00
2023-02-14T09:32:08.513Z,4.00
2023-02-14T09:34:36.025Z,4.00
2023-02-14T09:37:06.060Z,4.00
2023-02-14T09:39:33.685Z,4.00
2023-02-14T09:42:31.617Z,4.00
2023-02-14T09:45:05.231Z,4.20
2023-02-14T09:47:35.641Z,6.60
2023-02-14T09:50:07.591Z,7.20
2023-02-14T09:52:34.955Z,8.90
2023-02-14T09:55:02.854Z,10.20
2023-02-14T09:57:43.273Z,11.10
2023-02-14T10:00:25.323Z,11.80
2023-02-14T10:03:08.842Z,12.00
2023-02-14T10:05:38.568Z,11.90
2023-02-14T10:08:26.125Z,11.00
2023-02-14T10:11:02.507Z,9.70
2023-02-14T10:13:30.418Z,8.70
2023-02-14T10:16:02.447Z,7.90
2023-02-14T10:19:01.942Z,7.40
2023-02-14T10:21:33.393Z,7.10
2023-02-14T10:24:05.066Z,6.80
2023-02-14T10:26:40.205Z,6.50
2023-02-14T10:29:15.699Z,6.30
2023-02-14T10:31:59.198Z,6.20
2023-02-14T10:34:38.587Z,6.20
2023-02-14T10:37:23.348Z,6.10
2023-02-14T10:39:59.606Z,6.00
2023-02-14T10:42:55.313Z,6.00
2023-02-14T10:45:44.300Z,5.90
2023-02-14T10:48:33.355Z,5.80
2023-02-14T10:51:15.673Z,5.90
2023-02-14T10:53:46.140Z,5.90
2023-02-14T10:56:20.025Z,5.70
2023-02-14T10:58:47.653Z,5.70
2023-02-14T11:01:17.287Z,5.80
2023-02-14T11:03:58.602Z,5.80
2023-02-14T11:06:26.381Z,5.80
2023-02-14T11:08:55.606Z,5.80
2023-02-14T11:11:33.291Z,5.70
2023-02-14T11:14:05.282Z,5.50
2023-02-14T11:16:34.988Z,5.40
2023-02-14T11:19:24.149Z,5.50
2023-02-14T11:21:51.951Z,5.50
2023-02-14T11:24:39.378Z,5.60
2023-02-14T11:27:12.700Z,5.90
2023-02-14T11:29:43.533Z,7.90
2023-02-14T11:32:16.531Z,8.40
2023-02-14T11:34:57.907Z,8.90
2023-02-14T11:37:33.957Z,8.70
2023-02-14T11:40:01.611Z,7.90
2023-02-14T11:42:45.505Z,7.60
2023-02-14T11:45:28.874Z,7.30
2023-02-14T11:48:39.460Z,7.80
2023-02-14T11:51:09.930Z,7.70
2023-02-14T11:53:46.617Z,7.40
2023-02-14T11:56:15.064Z,7.30
2023-02-14T11:58:55.626Z,7.00
2023-02-14T12:01:25.751Z,6.90
2023-02-14T12:03:54.477Z,6.70
2023-02-14T12:06:26.213Z,6.60
2023-02-14T12:09:31.528Z,6.50
2023-02-14T12:12:03.021Z,6.50
2023-02-14T12:14:31.948Z,6.40
2023-02-14T12:17:11.704Z,6.30
2023-02-14T12:19:47.392Z,6.30
2023-02-14T12:22:17.739Z,6.40
2023-02-14T12:24:57.566Z,6.40
2023-02-14T12:27:34.761Z,6.50
2023-02-14T12:30:14.262Z,6.50
2023-02-14T12:32:56.324Z,6.50
2023-02-14T12:35:32.766Z,6.50
2023-02-14T12:38:36.884Z,6.50
2023-02-14T12:41:14.383Z,6.60
2023-02-14T12:43:57.873Z,6.70
2023-02-14T12:46:51.473Z,6.90
2023-02-14T12:49:42.973Z,6.90
2023-02-14T12:52:10.324Z,7.10
2023-02-14T12:55:06.267Z,7.10
2023-02-14T12:57:42.166Z,7.20
2023-02-14T13:00:19.473Z,7.20
2023-02-14T13:03:15.070Z,7.20
2023-02-14T13:06:13.581Z,7.20
2023-02-14T13:08:46.741Z,7.10
2023-02-14T13:11:40.745Z,7.20
2023-02-14T13:14:45.672Z,7.20
2023-02-14T13:17:35.752Z,7.30
2023-02-14T13:20:13.467Z,7.20
2023-02-14T13:22:40.854Z,7.20
2023-02-14T13:25:23.735Z,7.30
2023-02-14T13:27:51.188Z,7.30
2023-02-14T13:30:32.652Z,7.20
2023-02-14T13:33:24.059Z,7.30
2023-02-14T13:35:51.891Z,7.30
2023-02-14T13:38:19.277Z,7.40
2023-02-14T13:40:46.577Z,7.50
2023-02-14T13:43:13.891Z,7.60
2023-02-14T13:45:50.591Z,7.60
2023-02-14T13:48:28.553Z,7.70
2023-02-14T13:51:00.095Z,7.70
2023-02-14T13:53:46.779Z,7.80
2023-02-14T13:56:16.774Z,7.80
2023-02-14T13:58:55.131Z,7.80
2023-02-14T14:01:52.027Z,7.70
2023-02-14T14:04:28.559Z,7.70
2023-02-14T14:07:05.276Z,7.70
2023-02-14T14:09:42.067Z,7.70
2023-02-14T14:12:27.973Z,7.60
2023-02-14T14:15:08.026Z,7.60
2023-02-14T14:17:40.448Z,7.60
2023-02-14T14:20:18.732Z,7.50
2023-02-14T14:22:50.661Z,7.40
2023-02-14T14:25:41.107Z,7.30
2023-02-14T14:28:12.208Z,7.20
2023-02-14T14:30:39.589Z,7.10
2023-02-14T14:33:14.017Z,7.00
2023-02-14T14:35:52.874Z,7.10
2023-02-14T14:38:20.406Z,7.10
2023-02-14T14:40:47.842Z,7.00
2023-02-14T14:43:27.855Z,7.00
2023-02-14T14:45:56.243Z,7.00
2023-02-14T14:48:51.108Z,6.90
2023-02-14T14:51:34.168Z,6.80
2023-02-14T14:54:16.331Z,6.80
2023-02-14T14:56:57.109Z,6.80
2023-02-14T14:59:35.168Z,6.70
2023-02-14T15:02:03.328Z,6.60
2023-02-14T15:04:32.501Z,6.60
2023-02-14T15:07:18.822Z,6.60
2023-02-14T15:09:46.254Z,6.60
2023-02-14T15:12:38.027Z,6.60
2023-02-14T15:15:05.861Z,6.60
2023-02-14T15:17:33.387Z,6.60
2023-02-14T15:20:04.165Z,6.60
2023-02-14T15:22:41.116Z,6.60
2023-02-14T15:25:19.284Z,6.60
2023-02-14T15:27:46.745Z,6.50
2023-02-14T15:30:20.456Z,6.50
2023-02-14T15:32:48.185Z,6.40
2023-02-14T15:35:16.262Z,6.40
2023-02-14T15:37:44.426Z,6.40
2023-02-14T15:40:18.927Z,6.40
2023-02-14T15:42:46.383Z,6.30
2023-02-14T15:45:25.412Z,6.30
2023-02-14T15:47:54.869Z,6.30
2023-02-14T15:50:33.579Z,6.20
2023-02-14T15:53:08.441Z,6.20
2023-02-14T15:55:35.813Z,6.20
2023-02-14T15:58:07.253Z,6.10
2023-02-14T16:00:34.893Z,6.00
2023-02-14T16:03:06.691Z,5.90
2023-02-14T16:05:34.022Z,5.80
2023-02-14T16:08:06.093Z,5.70
2023-02-14T16:10:37.784Z,5.60
2023-02-14T16:13:15.149Z,5.50
2023-02-14T16:15:58.122Z,5.50
2023-02-14T16:18:39.380Z,5.40
2023-02-14T16:21:27.624Z,5.30
2023-02-14T16:24:17.304Z,5.20
2023-02-14T16:26:44.833Z,5.20
2023-02-14T16:29:14.787Z,5.10
2023-02-14T16:32:06.271Z,5.00
2023-02-14T16:34:31.868Z,4.90
2023-02-14T16:37:02.972Z,4.90
2023-02-14T16:39:30.544Z,4.80
2023-02-14T16:41:57.927Z,4.70
2023-02-14T16:44:25.350Z,4.70
2023-02-14T16:46:52.741Z,4.60
2023-02-14T16:49:20.059Z,4.60
2023-02-14T16:51:47.745Z,4.60
2023-02-14T16:54:19.328Z,4.50
2023-02-14T16:57:17.597Z,4.40
2023-02-14T16:59:45.006Z,4.30
2023-02-14T17:02:13.437Z,4.30
2023-02-14T17:04:41.188Z,4.30
2023-02-14T17:07:08.544Z,4.20
2023-02-14T17:09:40.061Z,4.20
2023-02-14T17:12:13.282Z,4.10
2023-02-14T17:14:40.752Z,4.10
2023-02-14T17:17:08.128Z,4.20
2023-02-14T17:19:35.563Z,4.20
2023-02-14T17:22:04.526Z,4.10
2023-02-14T17:24:32.161Z,4.10
2023-02-14T17:26:59.698Z,4.00
2023-02-14T17:29:27.072Z,4.00
2023-02-14T17:31:54.431Z,3.90
2023-02-14T17:34:21.851Z,3.90
2023-02-14T17:36:49.195Z,3.90
2023-02-14T17:39:18.361Z,3.90
2023-02-14T17:41:45.671Z,3.80
2023-02-14T17:44:13.265Z,3.70
2023-02-14T17:46:40.952Z,3.70
2023-02-14T17:49:09.863Z,3.70
2023-02-14T17:51:37.216Z,3.70
2023-02-14T17:54:04.556Z,3.70
2023-02-14T17:56:31.870Z,3.70
2023-02-14T17:58:59.902Z,3.80
2023-02-14T18:01:31.306Z,3.70
2023-02-14T18:03:58.701Z,3.70
2023-02-14T18:06:26.772Z,3.70
2023-02-14T18:08:56.969Z,3.70
2023-02-14T18:11:28.500Z,3.60
2023-02-14T18:13:56.648Z,3.60
2023-02-14T18:16:24.885Z,3.60
2023-02-14T18:18:52.460Z,3.60
2023-02-14T18:21:21.091Z,3.60
2023-02-14T18:23:48.828Z,3.60
2023-02-14T18:26:16.691Z,3.60
2023-02-14T18:28:44.280Z,3.60
2023-02-14T18:31:13.422Z,3.60
2023-02-14T18:33:40.921Z,3.60
2023-02-14T18:36:11.954Z,3.60
2023-02-14T18:38:40.273Z,3.50
2023-02-14T18:41:08.962Z,3.50
2023-02-14T18:43:36.510Z,3.50
2023-02-14T18:46:17.382Z,3.40
2023-02-14T18:48:44.807Z,3.40
2023-02-14T18:51:12.158Z,3.30
2023-02-14T18:53:39.823Z,3.30
2023-02-14T18:56:08.213Z,3.30
2023-02-14T18:58:35.846Z,3.20
2023-02-14T19:01:10.277Z,3.20
2023-02-14T19:03:38.261Z,3.20
2023-02-14T19:06:05.874Z,3.10
2023-02-14T19:08:34.036Z,3.10
2023-02-14T19:11:02.303Z,3.10
2023-02-14T19:13:32.092Z,3.10
2023-02-14T19:15:59.662Z,3.10
2023-02-14T19:18:27.006Z,3.10
2023-02-14T19:20:54.392Z,3.10
2023-02-14T19:23:22.184Z,3.20
2023-02-14T19:25:49.591Z,3.20
2023-02-14T19:28:17.224Z,3.10
2023-02-14T19:30:44.628Z,3.10
2023-02-14T19:33:11.940Z,3.10
2023-02-14T19:35:39.259Z,3.10
2023-02-14T19:38:06.913Z,3.00
2023-02-14T19:40:34.326Z,3.10
2023-02-14T19:43:01.603Z,3.00
2023-02-14T19:45:32.488Z,3.00
2023-02-14T19:48:01.628Z,3.00
2023-02-14T19:50:29.769Z,3.00
2023-02-14T19:52:58.410Z,3.00
2023-02-14T19:55:27.573Z,2.90
2023-02-14T19:57:55.287Z,3.00
2023-02-14T20:00:22.713Z,2.90
2023-02-14T20:02:50.910Z,2.90
2023-02-14T20:05:18.558Z,3.00
2023-02-14T20:07:49.267Z,3.00
2023-02-14T20:10:17.289Z,3.00
2023-02-14T20:12:44.924Z,3.00
2023-02-14T20:15:12.549Z,3.00
2023-02-14T20:17:39.975Z,3.00
2023-02-14T20:20:08.504Z,2.90
2023-02-14T20:22:36.495Z,2.90
2023-02-14T20:25:05.878Z,2.80
2023-02-14T20:27:33.812Z,2.80
2023-02-14T20:30:01.933Z,2.90
2023-02-14T20:32:30.079Z,2.90
2023-02-14T20:34:58.878Z,2.90
2023-02-14T20:37:26.733Z,2.90
2023-02-14T20:39:54.878Z,3.00
2023-02-14T20:42:23.830Z,3.00
2023-02-14T20:44:51.843Z,3.00
2023-02-14T20:47:20.409Z,2.90
2023-02-14T20:49:48.169Z,2.90
2023-02-14T20:52:17.999Z,2.80
2023-02-14T20:54:45.650Z,2.70
2023-02-14T20:57:12.991Z,2.70
2023-02-14T20:59:44.637Z,2.70
2023-02-14T21:02:12.237Z,2.60
2023-02-14T21:04:39.763Z,2.60
2023-02-14T21:07:10.198Z,2.60
2023-02-14T21:09:38.442Z,2.60
2023-02-14T21:12:06.956Z,2.60
2023-02-14T21:14:34.363Z,2.60
2023-02-14T21:17:01.793Z,2.60
2023-02-14T21:19:29.191Z,2.60
2023-02-14T21:21:56.661Z,2.60
2023-02-14T21:24:24.385Z,2.60
2023-02-14T21:26:51.751Z,2.60
2023-02-14T21:29:19.118Z,2.60
2023-02-14T21:31:46.538Z,2.70
2023-02-14T21:34:14.777Z,2.70
2023-02-14T21:36:42.131Z,2.60
2023-02-14T21:39:09.409Z,2.60
2023-02-14T21:41:37.063Z,2.60
2023-02-14T21:44:04.642Z,2.60
2023-02-14T21:46:33.573Z,2.60
2023-02-14T21:49:20.239Z,2.50
2023-02-14T21:51:47.642Z,2.60
2023-02-14T21:54:15.039Z,2.50
2023-02-14T21:56:42.440Z,2.50
2023-02-14T21:59:09.848Z,2.50
2023-02-14T22:01:38.993Z,2.50
2023-02-14T22:04:10.134Z,2.50
2023-02-14T22:06:38.512Z,2.50
2023-02-14T22:09:05.951Z,2.40
2023-02-14T22:11:33.469Z,2.40
2023-02-14T22:14:00.821Z,2.40
2023-02-14T22:16:28.746Z,2.40
2023-02-14T22:18:56.070Z,2.40
2023-02-14T22:21:25.045Z,2.40
2023-02-14T22:23:52.388Z,2.40
2023-02-14T22:26:23.647Z,2.50
2023-02-14T22:28:51.835Z,2.50
2023-02-14T22:31:19.569Z,2.50
2023-02-14T22:33:47.635Z,2.50
2023-02-14T22:36:14.952Z,2.40
2023-02-14T22:38:42.603Z,2.30
2023-02-14T22:41:11.991Z,2.30
2023-02-14T22:43:39.544Z,2.40
2023-02-14T22:46:09.325Z,2.30
2023-02-14T22:48:36.927Z,2.30
2023-02-14T22:51:22.109Z,2.30
2023-02-14T22:53:50.373Z,2.30
2023-02-14T22:56:19.919Z,2.30
2023-02-14T22:58:47.314Z,2.30
2023-02-14T23:01:19.732Z,2.30
2023-02-14T23:03:47.299Z,2.30
2023-02-14T23:06:14.804Z,2.20
2023-02-14T23:08:42.974Z,2.20
2023-02-14T23:11:13.309Z,2.20
2023-02-14T23:13:59.187Z,2.10
2023-02-14T23:16:45.036Z,2.10
2023-02-14T23:19:38.637Z,2.10
2023-02-14T23:22:10.635Z,2.20
2023-02-14T23:24:37.994Z,2.10
2023-02-14T23:27:05.560Z,2.10
2023-02-14T23:29:32.935Z,2.10
2023-02-14T23:32:00.284Z,2.10
2023-02-14T23:34:29.032Z,2.10
2023-02-14T23:36:56.395Z,2.10
2023-02-14T23:39:23.676Z,2.10
2023-02-14T23:41:51.184Z,2.10
2023-02-14T23:44:22.029Z,2.00
2023-02-14T23:46:50.703Z,2.10
2023-02-14T23:49:18.087Z,2.10
2023-02-14T23:51:45.811Z,2.10
2023-02-14T23:54:13.640Z,2.10
2023-02-14T23:56:41.084Z,2.10
2023-02-14T23:59:08.508Z,2.10
